createdAt,value
2023-03-06T00:00:33.646Z,12.73
2023-03-06T00:03:00.739Z,12.75
2023-03-06T00:05:28.208Z,13.60
2023-03-06T00:07:55.211Z,13.05
2023-03-06T00:10:25.086Z,12.02
2023-03-06T00:12:53.508Z,12.15
2023-03-06T00:15:20.881Z,13.00
2023-03-06T00:17:48.157Z,13.30
2023-03-06T00:20:15.996Z,12.90
2023-03-06T00:22:43.243Z,11.85
2023-03-06T00:25:15.009Z,12.93
2023-03-06T00:27:42.118Z,12.57
2023-03-06T00:30:13.353Z,12.07
2023-03-06T00:32:42.895Z,11.93
2023-03-06T00:35:10.944Z,12.15
2023-03-06T00:37:37.963Z,12.45
2023-03-06T00:40:07.222Z,12.70
2023-03-06T00:42:34.349Z,13.57
2023-03-06T00:45:01.390Z,11.35
2023-03-06T00:47:28.454Z,12.30
2023-03-06T00:49:55.410Z,11.88
2023-03-06T00:52:22.422Z,11.98
2023-03-06T00:54:49.437Z,12.90
2023-03-06T00:57:16.469Z,11.65
2023-03-06T00:59:43.478Z,11.35
2023-03-06T01:02:10.582Z,12.43
2023-03-06T01:04:37.627Z,11.23
2023-03-06T01:07:04.667Z,10.75
2023-03-06T01:09:31.675Z,10.80
2023-03-06T01:11:58.811Z,12.07
2023-03-06T01:14:26.053Z,12.00
2023-03-06T01:16:54.155Z,11.88
2023-03-06T01:19:21.288Z,11.55
2023-03-06T01:21:48.343Z,10.90
2023-03-06T01:24:15.699Z,11.82
2023-03-06T01:26:42.816Z,11.93
2023-03-06T01:29:09.800Z,10.40
2023-03-06T01:31:37.282Z,11.05
2023-03-06T01:34:04.288Z,10.70
2023-03-06T01:36:31.316Z,11.73
2023-03-06T01:38:58.416Z,11.50
2023-03-06T01:41:25.459Z,11.68
2023-03-06T01:43:52.437Z,10.90
2023-03-06T01:46:42.048Z,11.13
2023-03-06T01:49:22.323Z,10.95
2023-03-06T01:52:01.742Z,11.70
2023-03-06T01:54:39.204Z,11.43
2023-03-06T01:57:12.405Z,11.38
2023-03-06T01:59:42.340Z,11.15
2023-03-06T02:02:11.616Z,11.43
2023-03-06T02:04:40.745Z,9.95
2023-03-06T02:07:08.718Z,10.23
2023-03-06T02:09:37.672Z,12.38
2023-03-06T02:12:09.428Z,11.57
2023-03-06T02:14:37.087Z,11.07
2023-03-06T02:17:07.164Z,10.82
2023-03-06T02:19:54.311Z,11.05
2023-03-06T02:22:23.128Z,9.65
2023-03-06T02:25:32.829Z,11.13
2023-03-06T02:28:00.173Z,10.77
2023-03-06T02:30:28.633Z,10.40
2023-03-06T02:32:56.002Z,10.50
2023-03-06T02:35:30.191Z,10.18
2023-03-06T02:38:02.502Z,9.55
2023-03-06T02:40:29.812Z,10.02
2023-03-06T02:42:58.679Z,9.95
2023-03-06T02:45:38.963Z,9.52
2023-03-06T02:48:06.805Z,10.10
2023-03-06T02:50:33.946Z,10.48
2023-03-06T02:53:01.598Z,9.38
2023-03-06T02:55:31.286Z,9.98
2023-03-06T02:57:58.514Z,10.10
2023-03-06T03:00:26.646Z,9.68
2023-03-06T03:02:54.838Z,9.07
2023-03-06T03:05:22.078Z,9.50
2023-03-06T03:07:55.953Z,9.60
2023-03-06T03:10:24.277Z,9.55
2023-03-06T03:12:51.697Z,9.85
2023-03-06T03:15:20.233Z,9.40
2023-03-06T03:17:47.497Z,10.07
2023-03-06T03:20:18.383Z,10.90
2023-03-06T03:22:50.106Z,9.45
2023-03-06T03:25:17.749Z,9.98
2023-03-06T03:27:45.534Z,9.05
2023-03-06T03:30:13.792Z,8.88
2023-03-06T03:32:40.924Z,10.40
2023-03-06T03:35:10.437Z,9.73
2023-03-06T03:37:37.767Z,9.88
2023-03-06T03:40:07.032Z,10.05
2023-03-06T03:42:34.208Z,9.38
2023-03-06T03:45:01.277Z,9.05
2023-03-06T03:47:28.930Z,9.10
2023-03-06T03:49:55.858Z,10.35
2023-03-06T03:52:23.550Z,10.85
2023-03-06T03:54:50.526Z,10.27
2023-03-06T03:57:17.598Z,11.77
2023-03-06T03:59:50.425Z,11.38
2023-03-06T04:02:46.667Z,9.80
2023-03-06T04:05:22.740Z,9.30
2023-03-06T04:07:49.897Z,9.45
2023-03-06T04:10:17.053Z,9.90
2023-03-06T04:12:44.583Z,9.95
2023-03-06T04:15:12.522Z,9.50
2023-03-06T04:17:40.460Z,9.60
2023-03-06T04:20:12.328Z,9.65
2023-03-06T04:22:39.536Z,9.73
2023-03-06T04:25:07.210Z,9.20
2023-03-06T04:27:34.203Z,9.32
2023-03-06T04:30:01.716Z,9.55
2023-03-06T04:32:30.566Z,8.98
2023-03-06T04:34:58.003Z,9.25
2023-03-06T04:37:26.671Z,9.13
2023-03-06T04:39:54.797Z,9.20
2023-03-06T04:42:21.703Z,9.23
2023-03-06T04:44:48.847Z,9.43
2023-03-06T04:47:17.549Z,8.75
2023-03-06T04:49:46.218Z,9.82
2023-03-06T04:52:13.265Z,9.23
2023-03-06T04:54:40.228Z,8.90
2023-03-06T04:57:07.118Z,9.48
2023-03-06T04:59:34.038Z,8.65
2023-03-06T05:02:00.968Z,10.00
2023-03-06T05:04:27.901Z,9.30
2023-03-06T05:06:54.792Z,8.98
2023-03-06T05:09:21.720Z,9.75
2023-03-06T05:11:48.741Z,9.15
2023-03-06T05:14:15.681Z,9.65
2023-03-06T05:16:42.651Z,9.27
2023-03-06T05:19:09.630Z,8.82
2023-03-06T05:21:36.606Z,9.25
2023-03-06T05:24:03.666Z,8.50
2023-03-06T05:26:30.696Z,9.45
2023-03-06T05:28:57.737Z,8.82
2023-03-06T05:31:24.665Z,8.73
2023-03-06T05:33:51.691Z,10.60
2023-03-06T05:36:18.668Z,8.57
2023-03-06T05:38:45.668Z,8.82
2023-03-06T05:41:13.312Z,9.25
2023-03-06T05:43:40.316Z,9.40
2023-03-06T05:46:07.965Z,9.93
2023-03-06T05:48:37.519Z,9.65
2023-03-06T05:51:05.299Z,9.02
2023-03-06T05:53:32.739Z,9.35
2023-03-06T05:56:03.227Z,9.02
2023-03-06T05:58:31.705Z,9.95
2023-03-06T06:00:58.880Z,9.50
2023-03-06T06:03:26.111Z,9.63
2023-03-06T06:05:53.382Z,10.23
2023-03-06T06:08:21.014Z,9.80
2023-03-06T06:10:48.036Z,9.65
2023-03-06T06:13:15.092Z,9.90
2023-03-06T06:15:42.138Z,8.57
2023-03-06T06:18:09.109Z,9.70
2023-03-06T06:20:37.896Z,9.07
2023-03-06T06:23:05.348Z,9.38
2023-03-06T06:25:33.257Z,9.50
2023-03-06T06:28:00.303Z,9.88
2023-03-06T06:30:27.356Z,10.57
2023-03-06T06:32:54.318Z,10.32
2023-03-06T06:35:21.623Z,9.63
2023-03-06T06:37:48.863Z,10.30
2023-03-06T06:40:15.938Z,9.68
2023-03-06T06:42:43.097Z,11.00
2023-03-06T06:45:11.131Z,10.50
2023-03-06T06:47:41.346Z,10.77
2023-03-06T06:50:12.708Z,9.50
2023-03-06T06:52:40.152Z,13.13
2023-03-06T06:55:07.923Z,9.35
2023-03-06T06:57:34.927Z,9.32
2023-03-06T07:00:02.031Z,10.60
2023-03-06T07:02:29.239Z,12.07
2023-03-06T07:05:04.047Z,10.70
2023-03-06T07:07:35.257Z,10.68
2023-03-06T07:10:07.028Z,9.43
2023-03-06T07:12:35.230Z,11.05
2023-03-06T07:15:02.826Z,10.23
2023-03-06T07:17:30.185Z,10.38
2023-03-06T07:19:57.325Z,10.27
2023-03-06T07:22:24.414Z,10.27
2023-03-06T07:24:51.407Z,9.68
2023-03-06T07:27:18.385Z,10.85
2023-03-06T07:29:45.419Z,10.73
2023-03-06T07:32:12.620Z,12.50
2023-03-06T07:34:39.638Z,16.42
2023-03-06T07:37:06.604Z,13.27
2023-03-06T07:39:33.633Z,12.90
2023-03-06T07:42:00.603Z,12.18
2023-03-06T07:44:28.075Z,11.02
2023-03-06T07:46:55.167Z,12.35
2023-03-06T07:49:22.326Z,11.73
2023-03-06T07:51:49.274Z,10.85
2023-03-06T07:54:16.260Z,11.48
2023-03-06T07:56:43.345Z,9.48
2023-03-06T07:59:11.823Z,9.73
2023-03-06T08:01:40.283Z,10.95
2023-03-06T08:04:07.448Z,9.82
2023-03-06T08:06:34.507Z,9.57
2023-03-06T08:09:01.823Z,9.63
2023-03-06T08:11:30.675Z,8.73
2023-03-06T08:13:58.267Z,7.68
2023-03-06T08:16:28.289Z,8.85
2023-03-06T08:18:56.521Z,8.85
2023-03-06T08:21:26.415Z,8.50
2023-03-06T08:23:53.493Z,7.78
2023-03-06T08:26:28.788Z,9.00
2023-03-06T08:28:57.198Z,8.80
2023-03-06T08:31:29.434Z,8.60
2023-03-06T08:33:58.894Z,9.15
2023-03-06T08:36:26.191Z,9.55
2023-03-06T08:38:53.510Z,9.00
2023-03-06T08:41:21.383Z,9.30
2023-03-06T08:43:49.821Z,9.60
2023-03-06T08:46:18.892Z,9.40
2023-03-06T08:48:49.701Z,9.13
2023-03-06T08:51:17.544Z,9.40
2023-03-06T08:53:44.944Z,10.48
2023-03-06T08:56:23.656Z,10.70
2023-03-06T08:58:51.147Z,9.85
2023-03-06T09:01:26.781Z,10.23
2023-03-06T09:03:56.133Z,10.68
2023-03-06T09:06:24.113Z,10.57
2023-03-06T09:08:52.559Z,9.85
2023-03-06T09:11:21.886Z,10.50
2023-03-06T09:13:48.928Z,9.82
2023-03-06T09:16:15.973Z,11.50
2023-03-06T09:18:43.079Z,10.48
2023-03-06T09:21:10.084Z,10.95
2023-03-06T09:23:39.541Z,9.95
2023-03-06T09:26:07.679Z,10.57
2023-03-06T09:28:39.247Z,11.02
2023-03-06T09:31:18.264Z,10.70
2023-03-06T09:33:45.466Z,10.45
2023-03-06T09:36:21.394Z,11.07
2023-03-06T09:38:49.944Z,11.32
2023-03-06T09:41:37.586Z,9.70
2023-03-06T09:44:09.100Z,10.85
2023-03-06T09:46:46.540Z,10.35
2023-03-06T09:49:53.905Z,10.98
2023-03-06T09:52:29.811Z,10.85
2023-03-06T09:55:17.722Z,11.57
2023-03-06T09:57:59.488Z,10.80
2023-03-06T10:00:33.132Z,11.13
2023-03-06T10:03:14.383Z,12.13
2023-03-06T10:05:50.180Z,10.45
2023-03-06T10:08:37.998Z,11.38
2023-03-06T10:11:11.519Z,11.02
2023-03-06T10:13:48.183Z,11.65
2023-03-06T10:16:27.365Z,10.68
2023-03-06T10:18:56.517Z,9.95
2023-03-06T10:21:45.345Z,11.35
2023-03-06T10:24:29.968Z,11.55
2023-03-06T10:27:28.439Z,11.15
2023-03-06T10:30:14.029Z,11.38
2023-03-06T10:32:57.908Z,9.95
2023-03-06T10:35:47.456Z,12.25
2023-03-06T10:38:25.382Z,10.82
2023-03-06T10:41:16.063Z,10.02
2023-03-06T10:44:04.001Z,11.52
2023-03-06T10:46:43.091Z,10.48
2023-03-06T10:49:33.266Z,9.98
2023-03-06T10:52:21.517Z,11.00
2023-03-06T10:54:48.517Z,10.50
2023-03-06T10:57:27.814Z,10.82
2023-03-06T10:59:58.210Z,10.02
2023-03-06T11:02:29.281Z,10.25
2023-03-06T11:04:59.178Z,11.57
2023-03-06T11:07:28.743Z,11.77
2023-03-06T11:10:18.353Z,10.82
2023-03-06T11:13:19.229Z,10.50
2023-03-06T11:16:27.330Z,11.23
2023-03-06T11:18:58.497Z,10.30
2023-03-06T11:21:32.038Z,11.68
2023-03-06T11:24:18.635Z,11.75
2023-03-06T11:26:51.833Z,10.45
2023-03-06T11:29:36.274Z,11.10
2023-03-06T11:32:16.387Z,12.07
2023-03-06T11:34:52.196Z,12.25
2023-03-06T11:37:25.204Z,11.55
2023-03-06T11:40:16.231Z,11.40
2023-03-06T11:43:03.010Z,11.23
2023-03-06T11:45:58.179Z,12.15
2023-03-06T11:48:31.372Z,11.20
2023-03-06T11:51:22.049Z,11.82
2023-03-06T11:53:49.239Z,10.98
2023-03-06T11:56:19.065Z,11.40
2023-03-06T11:58:55.163Z,11.57
2023-03-06T12:01:32.695Z,11.55
2023-03-06T12:04:17.865Z,10.82
2023-03-06T12:07:12.968Z,10.50
2023-03-06T12:09:52.179Z,11.27
2023-03-06T12:12:22.323Z,11.10
2023-03-06T12:15:27.422Z,10.88
2023-03-06T12:18:03.248Z,10.13
2023-03-06T12:23:42.812Z,11.25
2023-03-06T12:26:19.355Z,11.18
2023-03-06T12:29:05.940Z,11.85
2023-03-06T12:32:00.629Z,13.40
2023-03-06T12:34:47.044Z,11.43
2023-03-06T12:37:21.760Z,11.88
2023-03-06T12:39:48.683Z,11.30
2023-03-06T12:42:36.812Z,12.30
2023-03-06T12:45:19.051Z,10.52
2023-03-06T12:47:48.173Z,11.90
2023-03-06T12:50:24.434Z,12.05
2023-03-06T12:52:53.457Z,12.38
2023-03-06T12:55:24.914Z,16.67
2023-03-06T12:57:52.822Z,12.75
2023-03-06T13:00:35.158Z,16.83
2023-03-06T13:03:24.265Z,11.57
2023-03-06T13:06:03.518Z,12.10
2023-03-06T13:08:52.821Z,11.40
2023-03-06T13:11:52.242Z,12.10
2023-03-06T13:14:34.353Z,11.43
2023-03-06T13:17:22.703Z,12.32
2023-03-06T13:20:15.736Z,11.70
2023-03-06T13:22:44.967Z,11.40
2023-03-06T13:25:21.333Z,11.75
2023-03-06T13:27:54.310Z,12.70
2023-03-06T13:30:41.254Z,16.92
2023-03-06T13:33:26.904Z,13.15
2023-03-06T13:35:55.748Z,12.77
2023-03-06T13:38:28.697Z,11.63
2023-03-06T13:41:27.954Z,11.88
2023-03-06T13:43:57.033Z,11.98
2023-03-06T13:46:35.253Z,12.85
2023-03-06T13:49:05.152Z,11.70
2023-03-06T13:51:38.986Z,13.52
2023-03-06T13:54:26.831Z,17.63
2023-03-06T13:57:09.096Z,17.25
2023-03-06T14:00:08.122Z,12.82
2023-03-06T14:03:04.900Z,13.30
2023-03-06T14:05:51.588Z,17.02
2023-03-06T14:08:19.804Z,12.23
2023-03-06T14:10:57.766Z,12.93
2023-03-06T14:13:41.639Z,17.42
2023-03-06T14:16:20.449Z,16.88
2023-03-06T14:18:50.503Z,16.80
2023-03-06T14:21:32.576Z,17.95
2023-03-06T14:24:02.014Z,17.88
2023-03-06T14:26:34.848Z,18.23
2023-03-06T14:29:03.185Z,17.27
2023-03-06T14:31:37.369Z,16.30
2023-03-06T14:34:06.911Z,16.27
2023-03-06T14:36:43.058Z,17.33
2023-03-06T14:39:32.873Z,16.52
2023-03-06T14:42:16.856Z,17.10
2023-03-06T14:44:44.124Z,16.40
2023-03-06T14:47:28.629Z,16.98
2023-03-06T14:50:34.095Z,16.77
2023-03-06T14:53:06.489Z,17.17
2023-03-06T14:55:35.578Z,17.30
2023-03-06T14:58:10.189Z,15.35
2023-03-06T15:00:44.738Z,16.83
2023-03-06T15:03:18.208Z,18.00
2023-03-06T15:05:47.384Z,16.70
2023-03-06T15:08:21.962Z,17.10
2023-03-06T15:11:00.801Z,16.95
2023-03-06T15:13:30.152Z,16.67
2023-03-06T15:15:58.571Z,16.42
2023-03-06T15:18:36.231Z,17.13
2023-03-06T15:21:19.033Z,17.08
2023-03-06T15:23:48.470Z,16.83
2023-03-06T15:26:28.044Z,16.67
2023-03-06T15:29:10.646Z,16.88
2023-03-06T15:31:40.836Z,16.35
2023-03-06T15:34:07.897Z,16.02
2023-03-06T15:36:40.239Z,16.90
2023-03-06T15:39:46.587Z,17.73
2023-03-06T15:42:20.766Z,17.15
2023-03-06T15:44:53.466Z,16.60
2023-03-06T15:47:21.648Z,17.33
2023-03-06T15:49:52.098Z,16.90
2023-03-06T15:52:23.394Z,17.65
2023-03-06T15:54:50.460Z,16.20
2023-03-06T15:57:30.871Z,18.33
2023-03-06T15:59:59.797Z,16.38
2023-03-06T16:02:26.924Z,17.70
2023-03-06T16:04:54.024Z,16.48
2023-03-06T16:07:21.206Z,17.10
2023-03-06T16:09:48.245Z,16.63
2023-03-06T16:12:17.955Z,17.02
2023-03-06T16:14:47.664Z,16.88
2023-03-06T16:17:15.310Z,12.32
2023-03-06T16:19:43.034Z,17.05
2023-03-06T16:22:10.406Z,18.02
2023-03-06T16:24:37.374Z,17.17
2023-03-06T16:27:04.883Z,17.90
2023-03-06T16:29:32.578Z,17.95
2023-03-06T16:32:01.726Z,18.02
2023-03-06T16:34:28.984Z,17.33
2023-03-06T16:36:56.341Z,18.15
2023-03-06T16:39:24.053Z,14.20
2023-03-06T16:41:51.698Z,18.65
2023-03-06T16:44:19.484Z,19.50
2023-03-06T16:46:49.603Z,18.73
2023-03-06T16:49:22.492Z,18.10
2023-03-06T16:51:50.245Z,18.48
2023-03-06T16:54:17.763Z,18.73
2023-03-06T16:56:44.767Z,18.48
2023-03-06T16:59:12.251Z,19.35
2023-03-06T17:01:42.630Z,19.38
2023-03-06T17:04:10.425Z,15.05
2023-03-06T17:06:38.018Z,19.33
2023-03-06T17:09:05.565Z,20.58
2023-03-06T17:11:32.531Z,19.45
2023-03-06T17:13:59.642Z,19.67
2023-03-06T17:16:26.613Z,15.60
2023-03-06T17:18:55.227Z,14.82
2023-03-06T17:21:22.336Z,20.92
2023-03-06T17:23:50.835Z,15.55
2023-03-06T17:26:19.281Z,20.55
2023-03-06T17:28:47.085Z,15.55
2023-03-06T17:31:34.257Z,15.52
2023-03-06T17:34:01.277Z,20.65
2023-03-06T17:36:29.870Z,15.90
2023-03-06T17:38:58.843Z,15.20
2023-03-06T17:41:26.560Z,16.02
2023-03-06T17:43:56.060Z,21.83
2023-03-06T17:46:23.046Z,15.30
2023-03-06T17:48:50.135Z,16.08
2023-03-06T17:51:17.070Z,14.80
2023-03-06T17:53:44.036Z,16.15
2023-03-06T17:56:13.984Z,16.35
2023-03-06T17:58:41.132Z,15.63
2023-03-06T18:01:13.168Z,16.23
2023-03-06T18:03:43.320Z,16.00
2023-03-06T18:06:10.982Z,16.55
2023-03-06T18:08:38.512Z,21.77
2023-03-06T18:11:07.760Z,16.38
2023-03-06T18:13:36.873Z,17.58
2023-03-06T18:16:04.907Z,21.23
2023-03-06T18:18:32.017Z,16.92
2023-03-06T18:21:05.023Z,15.82
2023-03-06T18:23:32.204Z,15.95
2023-03-06T18:26:18.889Z,16.17
2023-03-06T18:28:48.823Z,14.32
2023-03-06T18:31:27.802Z,14.52
2023-03-06T18:33:57.688Z,13.88
2023-03-06T18:36:27.100Z,13.95
2023-03-06T18:38:54.786Z,12.63
2023-03-06T18:41:22.497Z,12.63
2023-03-06T18:43:57.399Z,10.32
2023-03-06T18:46:25.921Z,10.13
2023-03-06T18:48:52.847Z,10.45
2023-03-06T18:51:20.222Z,13.98
2023-03-06T18:53:47.655Z,11.25
2023-03-06T18:56:20.941Z,11.35
2023-03-06T18:58:48.876Z,9.90
2023-03-06T19:01:16.894Z,9.73
2023-03-06T19:03:44.179Z,10.98
2023-03-06T19:06:13.485Z,10.30
2023-03-06T19:08:41.011Z,11.50
2023-03-06T19:11:11.168Z,9.95
2023-03-06T19:13:38.799Z,9.82
2023-03-06T19:16:06.643Z,10.45
2023-03-06T19:18:34.067Z,10.35
2023-03-06T19:21:08.637Z,10.38
2023-03-06T19:23:35.880Z,9.18
2023-03-06T19:26:02.909Z,10.38
2023-03-06T19:28:30.873Z,10.32
2023-03-06T19:30:57.831Z,10.65
2023-03-06T19:33:24.916Z,9.77
2023-03-06T19:35:52.099Z,9.05
2023-03-06T19:38:19.036Z,9.23
2023-03-06T19:40:50.521Z,9.43
2023-03-06T19:43:17.541Z,9.02
2023-03-06T19:45:44.740Z,8.45
2023-03-06T19:48:12.517Z,8.82
2023-03-06T19:50:40.587Z,9.82
2023-03-06T19:53:08.416Z,8.90
2023-03-06T19:55:35.426Z,8.85
2023-03-06T19:58:02.505Z,8.50
2023-03-06T20:00:29.852Z,9.25
2023-03-06T20:02:57.485Z,9.77
2023-03-06T20:05:26.666Z,11.93
2023-03-06T20:07:53.676Z,9.65
2023-03-06T20:10:20.753Z,9.98
2023-03-06T20:12:47.801Z,9.10
2023-03-06T20:15:14.890Z,9.65
2023-03-06T20:17:41.939Z,9.93
2023-03-06T20:20:09.983Z,9.98
2023-03-06T20:22:37.117Z,10.98
2023-03-06T20:25:04.585Z,9.80
2023-03-06T20:27:31.572Z,9.15
2023-03-06T20:29:58.614Z,9.63
2023-03-06T20:32:25.791Z,9.65
2023-03-06T20:34:52.783Z,8.77
2023-03-06T20:37:19.842Z,9.68
2023-03-06T20:39:47.863Z,10.43
2023-03-06T20:42:15.074Z,9.15
2023-03-06T20:44:42.025Z,10.13
2023-03-06T20:47:09.689Z,9.70
2023-03-06T20:49:36.734Z,9.98
2023-03-06T20:52:03.912Z,10.32
2023-03-06T20:54:30.914Z,11.20
2023-03-06T20:56:57.940Z,10.18
2023-03-06T20:59:25.120Z,10.25
2023-03-06T21:01:52.328Z,10.13
2023-03-06T21:04:19.403Z,10.55
2023-03-06T21:06:47.202Z,11.55
2023-03-06T21:09:16.402Z,9.75
2023-03-06T21:11:43.605Z,8.85
2023-03-06T21:14:12.355Z,10.30
2023-03-06T21:16:39.292Z,10.13
2023-03-06T21:19:06.721Z,10.65
2023-03-06T21:21:35.135Z,9.63
2023-03-06T21:24:02.562Z,10.25
2023-03-06T21:26:31.477Z,10.70
2023-03-06T21:28:58.962Z,9.23
2023-03-06T21:31:28.570Z,10.43
2023-03-06T21:33:57.012Z,10.50
2023-03-06T21:36:24.295Z,10.77
2023-03-06T21:38:52.889Z,9.93
2023-03-06T21:41:26.484Z,11.23
2023-03-06T21:43:58.384Z,10.40
2023-03-06T21:46:26.281Z,10.27
2023-03-06T21:48:53.920Z,10.52
2023-03-06T21:51:23.805Z,10.82
2023-03-06T21:53:51.472Z,10.52
2023-03-06T21:56:20.728Z,11.18
2023-03-06T21:58:47.814Z,12.02
2023-03-06T22:01:18.571Z,12.13
2023-03-06T22:03:45.722Z,12.02
2023-03-06T22:06:15.256Z,11.93
2023-03-06T22:08:43.381Z,12.02
2023-03-06T22:11:16.024Z,12.15
2023-03-06T22:13:43.456Z,12.18
2023-03-06T22:16:10.669Z,12.25
2023-03-06T22:18:37.910Z,13.40
2023-03-06T22:21:12.328Z,12.43
2023-03-06T22:23:40.505Z,12.20
2023-03-06T22:26:15.452Z,12.73
2023-03-06T22:28:42.444Z,14.57
2023-03-06T22:31:23.827Z,13.70
2023-03-06T22:33:53.093Z,12.70
2023-03-06T22:36:20.867Z,12.98
2023-03-06T22:38:49.078Z,12.95
2023-03-06T22:41:17.652Z,12.43
2023-03-06T22:43:44.831Z,12.05
2023-03-06T22:46:14.379Z,11.45
2023-03-06T22:48:42.438Z,12.52
2023-03-06T22:51:14.595Z,11.10
2023-03-06T22:53:42.396Z,11.85
2023-03-06T22:56:13.106Z,12.50
2023-03-06T22:58:40.667Z,12.73
2023-03-06T23:01:16.515Z,12.05
2023-03-06T23:06:18.640Z,14.43
2023-03-06T23:08:50.079Z,13.77
2023-03-06T23:11:19.563Z,13.88
2023-03-06T23:14:05.940Z,12.95
2023-03-06T23:16:51.840Z,15.57
2023-03-06T23:19:37.996Z,13.07
2023-03-06T23:22:23.574Z,13.75
2023-03-06T23:25:09.322Z,13.50
2023-03-06T23:27:36.676Z,13.25
2023-03-06T23:30:05.990Z,13.32
2023-03-06T23:32:33.744Z,13.98
2023-03-06T23:35:00.959Z,14.05
2023-03-06T23:37:27.941Z,14.50
2023-03-06T23:39:55.177Z,15.90
2023-03-06T23:42:22.682Z,16.23
2023-03-06T23:44:49.765Z,15.43
2023-03-06T23:47:17.269Z,16.77
2023-03-06T23:49:44.285Z,15.57
2023-03-06T23:52:11.212Z,15.48
2023-03-06T23:54:38.301Z,15.48
2023-03-06T23:57:05.290Z,15.15
2023-03-06T23:59:32.192Z,16.40
